Time;durP1;ratioP1;P1;durP2;ratioP2;P2;SDS_P1;SDS_P2;PMS_P1;PMS_P2;Temp;Humidity;BMP_temperature;BMP_pressure;BME280_temperature;BME280_humidity;BME280_pressure;Samples;Min_cycle;Max_cycle;Signal;HPM_P1;HPM_P2
2022/09/15 00:01:00;;;;;;;18.53;8.03;;;12.60;99.90;;;;;;5034240;28;20172;-80
2022/09/15 00:03:27;;;;;;;10.07;7.97;;;12.60;99.90;;;;;;5036793;28;20252;-80
2022/09/15 00:05:53;;;;;;;12.77;7.90;;;12.50;99.90;;;;;;5037449;28;20175;-80
2022/09/15 00:08:20;;;;;;;11.53;7.43;;;12.50;99.90;;;;;;5039420;28;20228;-80
2022/09/15 00:10:49;;;;;;;12.27;7.53;;;12.50;99.90;;;;;;5038056;28;20177;-80
2022/09/15 00:13:16;;;;;;;9.80;7.03;;;12.50;99.90;;;;;;5040440;28;20200;-80
2022/09/15 00:15:42;;;;;;;12.60;7.20;;;12.40;99.90;;;;;;5040532;28;20270;-80
2022/09/15 00:18:07;;;;;;;13.37;6.53;;;12.40;99.90;;;;;;5039419;28;20196;-79
2022/09/15 00:20:33;;;;;;;14.30;7.37;;;12.40;99.90;;;;;;5039065;28;20226;-79
2022/09/15 00:22:58;;;;;;;11.30;6.40;;;12.30;99.90;;;;;;5040388;28;20200;-80
2022/09/15 00:25:24;;;;;;;13.73;6.70;;;12.30;99.90;;;;;;5039080;28;20173;-80
2022/09/15 00:27:50;;;;;;;9.83;6.77;;;12.30;99.90;;;;;;5040141;28;20180;-80
2022/09/15 00:30:15;;;;;;;7.33;5.87;;;12.20;99.90;;;;;;5039042;28;20165;-80
2022/09/15 00:32:41;;;;;;;11.57;7.17;;;12.10;99.90;;;;;;5039049;28;20203;-80
2022/09/15 00:35:06;;;;;;;10.63;6.60;;;12.10;99.90;;;;;;5040077;28;20175;-80
2022/09/15 00:37:32;;;;;;;11.80;6.83;;;12.00;99.90;;;;;;5038804;28;20287;-80
2022/09/15 00:39:58;;;;;;;11.87;7.87;;;12.00;99.90;;;;;;5039953;28;20259;-80
2022/09/15 00:42:24;;;;;;;10.00;7.23;;;12.00;99.90;;;;;;5039152;28;20211;-80
2022/09/15 00:44:55;;;;;;;12.37;7.90;;;12.00;99.90;;;;;;5040335;28;20682;-79
2022/09/15 00:47:39;;;;;;;11.43;7.03;;;12.00;99.90;;;;;;5040388;28;20176;-80
2022/09/15 00:50:10;;;;;;;9.63;7.80;;;11.90;99.90;;;;;;5040237;28;20160;-80
2022/09/15 00:52:54;;;;;;;14.27;7.30;;;11.80;99.90;;;;;;5039855;28;20207;-80
2022/09/15 00:55:47;;;;;;;11.83;7.77;;;11.70;99.90;;;;;;5040286;28;20678;-80
2022/09/15 00:58:24;;;;;;;16.07;7.97;;;11.70;99.90;;;;;;5039692;28;20657;-80
2022/09/15 01:00:59;;;;;;;10.43;7.90;;;11.70;99.90;;;;;;5039922;28;20208;-80
2022/09/15 01:03:25;;;;;;;9.90;7.10;;;11.70;99.90;;;;;;5040953;28;20226;-80
2022/09/15 01:06:00;;;;;;;13.27;8.63;;;11.60;99.90;;;;;;5039981;28;20165;-80
2022/09/15 01:08:41;;;;;;;10.57;8.00;;;11.60;99.90;;;;;;5040193;28;20164;-80
2022/09/15 01:11:06;;;;;;;10.70;7.97;;;11.60;99.90;;;;;;5038094;28;20242;-79
2022/09/15 01:13:32;;;;;;;10.50;7.87;;;11.50;99.90;;;;;;5042873;28;20188;-80
2022/09/15 01:16:16;;;;;;;10.20;7.77;;;11.50;99.90;;;;;;5044121;28;20201;-80
2022/09/15 01:18:52;;;;;;;10.43;7.73;;;11.40;99.90;;;;;;5044933;28;20207;-80
2022/09/15 01:21:48;;;;;;;10.70;7.37;;;11.40;99.90;;;;;;5034205;28;20697;-79
2022/09/15 01:24:40;;;;;;;14.63;8.07;;;11.40;99.90;;;;;;5022128;28;20201;-80
2022/09/15 01:27:31;;;;;;;13.97;8.60;;;11.40;99.90;;;;;;5040796;28;20173;-80
2022/09/15 01:30:14;;;;;;;13.30;8.73;;;11.30;99.90;;;;;;5025337;28;20157;-79
2022/09/15 01:33:02;;;;;;;15.03;7.87;;;11.30;99.90;;;;;;5024650;28;20228;-80
2022/09/15 01:35:47;;;;;;;10.67;8.47;;;11.30;99.90;;;;;;5040986;28;20181;-80
2022/09/15 01:38:44;;;;;;;13.70;8.30;;;11.30;99.90;;;;;;5041416;28;20272;-80
2022/09/15 01:41:36;;;;;;;10.63;7.33;;;11.20;99.90;;;;;;5043108;28;20180;-80
2022/09/15 01:44:08;;;;;;;15.07;9.27;;;11.30;99.90;;;;;;5046989;28;20160;-80
2022/09/15 01:46:39;;;;;;;14.07;9.03;;;11.20;99.90;;;;;;5040208;28;20169;-80
2022/09/15 01:49:08;;;;;;;15.47;9.53;;;11.20;99.90;;;;;;5038623;28;20183;-80
2022/09/15 01:51:35;;;;;;;15.20;9.23;;;11.10;99.90;;;;;;5038385;28;20268;-80
2022/09/15 01:54:03;;;;;;;13.30;9.03;;;11.10;99.90;;;;;;5038703;28;20182;-80
2022/09/15 01:56:29;;;;;;;8.93;7.07;;;11.10;99.90;;;;;;5037292;28;20215;-80
2022/09/15 01:58:54;;;;;;;15.53;8.73;;;11.10;99.90;;;;;;5039416;28;20192;-80
2022/09/15 02:01:43;;;;;;;13.03;8.30;;;11.10;99.90;;;;;;5027495;28;20212;-80
2022/09/15 02:04:35;;;;;;;12.77;7.73;;;11.10;99.90;;;;;;5021525;28;20153;-80
2022/09/15 02:07:06;;;;;;;10.17;6.77;;;11.10;99.90;;;;;;5036996;28;20165;-80
2022/09/15 02:09:37;;;;;;;13.07;7.03;;;11.00;99.90;;;;;;5020941;28;20542;-79
2022/09/15 02:12:11;;;;;;;12.90;6.97;;;11.00;99.90;;;;;;5040174;28;20228;-80
2022/09/15 02:14:51;;;;;;;12.40;6.70;;;11.00;99.90;;;;;;5041674;28;20156;-80
2022/09/15 02:17:19;;;;;;;12.67;6.57;;;11.00;99.90;;;;;;5039918;28;20168;-80
2022/09/15 02:19:52;;;;;;;8.97;6.70;;;11.00;99.90;;;;;;5041572;28;20200;-80
2022/09/15 02:22:30;;;;;;;10.17;6.37;;;10.90;99.90;;;;;;5065710;22;20604;-77
2022/09/15 02:25:13;;;;;;;10.67;7.00;;;10.90;99.90;;;;;;5015530;28;20271;-78
2022/09/15 02:27:51;;;;;;;9.50;6.17;;;10.90;99.90;;;;;;5017472;28;20157;-78
2022/09/15 02:30:18;;;;;;;8.70;6.17;;;10.90;99.90;;;;;;5016037;28;20654;-78
2022/09/15 02:32:51;;;;;;;10.47;7.43;;;10.90;99.90;;;;;;5040401;28;20240;-77
2022/09/15 02:35:17;;;;;;;11.80;7.37;;;10.90;99.90;;;;;;5055677;28;20573;-78
2022/09/15 02:37:43;;;;;;;12.43;7.10;;;10.80;99.90;;;;;;5055952;28;20215;-77
2022/09/15 02:40:09;;;;;;;13.57;7.83;;;10.80;99.90;;;;;;5053811;28;20231;-77
2022/09/15 02:42:35;;;;;;;16.23;8.43;;;10.80;99.90;;;;;;5071667;28;20227;-78
2022/09/15 02:45:00;;;;;;;14.43;7.77;;;10.80;99.90;;;;;;5056596;28;20168;-78
2022/09/15 02:47:29;;;;;;;10.20;7.07;;;10.70;99.90;;;;;;5055991;28;20178;-78
2022/09/15 02:49:55;;;;;;;12.37;7.63;;;10.70;99.90;;;;;;5055441;28;20231;-78
2022/09/15 02:52:21;;;;;;;15.13;7.60;;;10.70;99.90;;;;;;5069241;28;20661;-78
2022/09/15 02:54:47;;;;;;;12.40;7.43;;;10.70;99.90;;;;;;5055339;28;20187;-78
2022/09/15 02:57:13;;;;;;;9.90;7.03;;;10.70;99.90;;;;;;5056271;28;20180;-78
2022/09/15 03:02:24;;;;;;;14.27;7.53;;;10.80;99.90;;;;;;5045069;28;20190;-78
2022/09/15 03:04:50;;;;;;;9.33;6.97;;;10.70;99.90;;;;;;5055835;28;20183;-78
2022/09/15 03:07:16;;;;;;;18.67;8.30;;;10.70;99.90;;;;;;5056223;28;20172;-78
2022/09/15 03:09:42;;;;;;;9.73;7.50;;;10.70;99.90;;;;;;5054708;28;20186;-78
2022/09/15 03:12:08;;;;;;;17.17;8.40;;;10.80;99.90;;;;;;5068503;28;20176;-78
2022/09/15 03:14:34;;;;;;;15.70;8.47;;;10.80;99.90;;;;;;5053671;28;20298;-78
2022/09/15 03:17:00;;;;;;;12.77;8.07;;;10.80;99.90;;;;;;5055615;28;20540;-77
2022/09/15 03:19:26;;;;;;;16.33;8.43;;;10.80;99.90;;;;;;5070686;28;20203;-78
2022/09/15 03:21:51;;;;;;;11.60;8.50;;;10.80;99.90;;;;;;5054638;28;20198;-78
2022/09/15 03:24:18;;;;;;;12.70;8.17;;;10.90;99.90;;;;;;5056441;28;20207;-78
2022/09/15 03:26:44;;;;;;;12.00;7.37;;;10.90;99.90;;;;;;5071677;28;20178;-78
2022/09/15 03:29:10;;;;;;;11.53;7.17;;;10.90;99.90;;;;;;5057053;28;20167;-78
2022/09/15 03:31:35;;;;;;;10.60;7.20;;;10.90;99.90;;;;;;5052621;28;20211;-78
2022/09/15 03:34:01;;;;;;;10.70;7.30;;;11.00;99.90;;;;;;5053397;28;20195;-78
2022/09/15 03:36:26;;;;;;;14.07;7.30;;;11.00;99.90;;;;;;5054217;28;20183;-77
2022/09/15 03:38:52;;;;;;;15.47;7.13;;;11.00;99.90;;;;;;5054918;28;20218;-78
2022/09/15 03:41:17;;;;;;;9.77;6.60;;;11.00;99.90;;;;;;5052258;28;20184;-78
2022/09/15 03:43:43;;;;;;;11.27;6.73;;;11.10;99.90;;;;;;5052847;28;20660;-78
2022/09/15 03:46:10;;;;;;;15.20;7.07;;;11.10;99.90;;;;;;5055151;28;20691;-78
2022/09/15 03:48:36;;;;;;;12.93;6.90;;;11.10;99.90;;;;;;5055131;28;20301;-78
2022/09/15 03:51:04;;;;;;;10.03;7.40;;;11.20;99.90;;;;;;5045247;28;20184;-78
2022/09/15 03:53:33;;;;;;;10.20;7.07;;;11.20;99.90;;;;;;5049884;28;20200;-77
2022/09/15 03:56:10;;;;;;;8.87;6.83;;;11.20;99.90;;;;;;5050406;28;20186;-78
2022/09/15 03:58:36;;;;;;;12.33;7.30;;;11.30;99.90;;;;;;5034915;28;20204;-78
2022/09/15 04:01:01;;;;;;;13.17;7.40;;;11.30;99.90;;;;;;5041866;28;20195;-78
2022/09/15 04:03:27;;;;;;;14.43;6.60;;;11.30;99.90;;;;;;5059954;28;20317;-77
2022/09/15 04:05:52;;;;;;;8.77;6.63;;;11.40;99.90;;;;;;5061350;28;20167;-77
2022/09/15 04:08:18;;;;;;;9.57;6.77;;;11.30;99.90;;;;;;5056169;28;20172;-78
2022/09/15 04:10:44;;;;;;;10.80;7.13;;;11.40;99.90;;;;;;5053031;28;20234;-77
2022/09/15 04:13:09;;;;;;;9.07;7.00;;;11.40;99.90;;;;;;5053128;28;20568;-78
2022/09/15 04:15:35;;;;;;;12.03;6.30;;;11.40;99.90;;;;;;5069449;28;20175;-78
2022/09/15 04:18:01;;;;;;;14.30;6.60;;;11.50;99.90;;;;;;5054780;28;20206;-78
2022/09/15 04:20:26;;;;;;;11.70;6.97;;;11.50;99.90;;;;;;5051914;28;20183;-78
2022/09/15 04:22:52;;;;;;;10.13;6.30;;;11.50;99.90;;;;;;5053721;28;20294;-78
2022/09/15 04:25:17;;;;;;;9.30;6.70;;;11.50;99.90;;;;;;5055588;28;20163;-78
2022/09/15 04:27:43;;;;;;;12.30;6.43;;;11.50;99.90;;;;;;5054445;28;20172;-78
2022/09/15 04:30:09;;;;;;;11.50;6.47;;;11.50;99.90;;;;;;5053564;28;20171;-78
2022/09/15 04:32:35;;;;;;;12.20;6.53;;;11.60;99.90;;;;;;5054476;28;20192;-78
2022/09/15 04:35:01;;;;;;;8.97;6.50;;;11.60;99.90;;;;;;5054104;28;20176;-78
2022/09/15 04:37:26;;;;;;;8.57;6.07;;;11.60;99.90;;;;;;5055105;28;20167;-78
2022/09/15 04:39:52;;;;;;;10.87;6.73;;;11.60;99.90;;;;;;5053201;28;20540;-78
2022/09/15 04:42:20;;;;;;;11.60;6.27;;;11.60;99.90;;;;;;5053751;28;20179;-78
2022/09/15 04:44:46;;;;;;;13.13;7.30;;;11.60;99.90;;;;;;5055956;28;20176;-79
2022/09/15 04:47:12;;;;;;;11.47;6.07;;;11.70;99.90;;;;;;5055499;28;20253;-78
2022/09/15 04:49:37;;;;;;;13.33;6.93;;;11.60;99.90;;;;;;5060312;28;20253;-78
2022/09/15 04:52:03;;;;;;;12.47;6.30;;;11.70;99.90;;;;;;5056771;28;20189;-78
2022/09/15 04:54:30;;;;;;;13.53;6.57;;;11.70;99.90;;;;;;5074154;28;20746;-78
2022/09/15 04:56:56;;;;;;;10.83;7.30;;;11.70;99.90;;;;;;5075295;28;20210;-78
2022/09/15 04:59:22;;;;;;;12.23;6.13;;;11.70;99.90;;;;;;5074692;28;20577;-78
2022/09/15 05:01:48;;;;;;;9.93;6.10;;;11.70;99.90;;;;;;5055994;28;20179;-78
2022/09/15 05:04:13;;;;;;;9.57;6.13;;;11.70;99.90;;;;;;5056111;28;20240;-78
2022/09/15 05:06:39;;;;;;;10.70;6.90;;;11.70;99.90;;;;;;5060670;28;20704;-77
2022/09/15 05:09:06;;;;;;;13.10;7.30;;;11.70;99.90;;;;;;5063903;28;20220;-78
2022/09/15 05:11:32;;;;;;;12.77;7.43;;;11.70;99.90;;;;;;5059395;28;20556;-78
2022/09/15 05:13:58;;;;;;;13.37;7.03;;;11.70;99.90;;;;;;5057903;28;20286;-77
2022/09/15 05:16:26;;;;;;;11.33;7.47;;;11.70;99.90;;;;;;5060281;28;20235;-78
2022/09/15 05:18:54;;;;;;;9.43;6.83;;;11.70;99.90;;;;;;5059311;28;20717;-78
2022/09/15 05:21:22;;;;;;;12.63;7.07;;;11.80;99.90;;;;;;5066666;28;20177;-79
2022/09/15 05:23:50;;;;;;;11.33;6.87;;;11.80;99.90;;;;;;5054231;28;20674;-78
2022/09/15 05:26:18;;;;;;;10.27;6.27;;;11.80;99.90;;;;;;5042374;28;20255;-78
2022/09/15 05:28:44;;;;;;;13.03;7.07;;;11.90;99.90;;;;;;5057427;28;20181;-78
2022/09/15 05:31:27;;;;;;;13.53;6.83;;;11.90;99.90;;;;;;5040905;28;20196;-78
2022/09/15 05:33:53;;;;;;;11.63;7.20;;;11.90;99.90;;;;;;5038688;28;20269;-78
2022/09/15 05:36:23;;;;;;;10.80;7.57;;;11.90;99.90;;;;;;5039725;28;20259;-78
2022/09/15 05:38:49;;;;;;;12.97;8.50;;;11.90;99.90;;;;;;5038947;28;20196;-77
2022/09/15 05:41:17;;;;;;;11.87;8.47;;;11.90;99.90;;;;;;5037866;28;20191;-78
2022/09/15 05:43:44;;;;;;;15.77;8.33;;;12.00;99.90;;;;;;5038280;28;20658;-78
2022/09/15 05:46:11;;;;;;;15.63;7.83;;;12.00;99.90;;;;;;5053423;28;20176;-78
2022/09/15 05:48:36;;;;;;;16.23;8.07;;;12.00;99.90;;;;;;5039390;28;20191;-79
2022/09/15 05:51:02;;;;;;;14.47;7.73;;;12.00;99.90;;;;;;5047313;28;20191;-78
2022/09/15 05:53:30;;;;;;;14.83;8.03;;;12.00;99.90;;;;;;5056870;28;20214;-78
2022/09/15 05:55:57;;;;;;;13.83;8.50;;;12.00;99.90;;;;;;5058977;28;20168;-78
2022/09/15 05:58:23;;;;;;;12.60;8.60;;;12.10;99.90;;;;;;5059365;28;20195;-78
2022/09/15 06:00:49;;;;;;;12.70;8.27;;;12.30;99.90;;;;;;5066724;28;20177;-78
2022/09/15 06:03:15;;;;;;;11.10;8.27;;;12.20;99.90;;;;;;5049531;28;20209;-77
2022/09/15 06:05:41;;;;;;;14.50;8.60;;;12.20;99.90;;;;;;5061585;28;20167;-78
2022/09/15 06:08:07;;;;;;;14.67;7.93;;;12.30;99.90;;;;;;5061404;28;20180;-78
2022/09/15 06:10:33;;;;;;;13.90;9.03;;;12.30;99.90;;;;;;5057598;28;20194;-78
2022/09/15 06:12:58;;;;;;;15.90;8.77;;;12.30;99.90;;;;;;5075957;28;20253;-78
2022/09/15 06:15:24;;;;;;;16.07;8.57;;;12.40;99.90;;;;;;5058527;28;20767;-79
2022/09/15 06:17:50;;;;;;;14.33;8.07;;;12.40;99.90;;;;;;5059460;28;20660;-78
2022/09/15 06:20:17;;;;;;;16.77;9.00;;;12.40;99.90;;;;;;5054874;28;20171;-78
2022/09/15 06:22:43;;;;;;;14.77;9.20;;;12.50;99.90;;;;;;5072158;28;20260;-77
2022/09/15 06:25:09;;;;;;;11.87;7.37;;;12.50;99.90;;;;;;5057645;28;20695;-78
2022/09/15 06:27:35;;;;;;;13.70;8.03;;;12.60;99.90;;;;;;5056993;28;20160;-78
2022/09/15 06:30:00;;;;;;;13.23;7.50;;;12.60;99.90;;;;;;5056830;28;20178;-78
2022/09/15 06:32:26;;;;;;;14.77;8.60;;;12.60;99.90;;;;;;5054366;28;20183;-78
2022/09/15 06:34:51;;;;;;;16.07;9.07;;;12.70;99.90;;;;;;5056423;28;20522;-76
2022/09/15 06:37:17;;;;;;;15.47;8.17;;;12.70;99.90;;;;;;5056630;28;20183;-78
2022/09/15 06:39:43;;;;;;;13.80;8.73;;;12.80;99.90;;;;;;5056680;28;20251;-78
2022/09/15 06:42:09;;;;;;;13.33;8.90;;;12.80;99.90;;;;;;5069034;28;20618;-76
2022/09/15 06:44:35;;;;;;;15.63;9.77;;;12.80;99.90;;;;;;5055423;28;20563;-78
2022/09/15 06:47:01;;;;;;;15.03;9.93;;;12.90;99.90;;;;;;5055782;28;20172;-78
2022/09/15 06:49:27;;;;;;;22.80;10.67;;;12.90;99.90;;;;;;5071816;28;20668;-78
2022/09/15 06:51:53;;;;;;;21.97;10.63;;;13.00;99.90;;;;;;5039879;28;20224;-78
2022/09/15 06:54:18;;;;;;;15.10;9.17;;;13.00;99.90;;;;;;5036492;28;20224;-78
2022/09/15 06:56:44;;;;;;;13.53;8.07;;;13.10;99.90;;;;;;5036712;28;20507;-78
2022/09/15 06:59:13;;;;;;;19.80;7.97;;;13.10;99.90;;;;;;5037122;28;20196;-78
2022/09/15 07:01:38;;;;;;;15.90;8.20;;;13.10;99.90;;;;;;5046458;28;20672;-78
2022/09/15 07:04:07;;;;;;;11.90;7.30;;;13.20;99.90;;;;;;5055077;28;20207;-78
2022/09/15 07:06:33;;;;;;;11.17;7.33;;;13.20;99.90;;;;;;5055468;28;20336;-78
2022/09/15 07:09:01;;;;;;;11.60;7.07;;;13.30;99.90;;;;;;5042840;28;20188;-77
2022/09/15 07:11:27;;;;;;;9.87;6.87;;;13.30;99.90;;;;;;5035520;28;20667;-78
2022/09/15 07:13:52;;;;;;;11.90;6.87;;;13.30;99.90;;;;;;5037016;28;20207;-78
2022/09/15 07:16:19;;;;;;;13.30;7.43;;;13.40;99.90;;;;;;5036668;28;20259;-78
2022/09/15 07:18:46;;;;;;;14.17;8.73;;;13.40;99.90;;;;;;5043914;28;20198;-77
2022/09/15 07:21:13;;;;;;;14.37;8.97;;;13.50;99.90;;;;;;5055236;28;20598;-78
2022/09/15 07:23:40;;;;;;;19.03;12.10;;;13.60;99.90;;;;;;5054104;28;20285;-76
2022/09/15 07:26:08;;;;;;;23.87;12.90;;;13.70;99.90;;;;;;5053811;28;20274;-77
2022/09/15 07:28:34;;;;;;;22.87;12.80;;;13.70;99.90;;;;;;5069061;28;20187;-78
2022/09/15 07:30:59;;;;;;;23.67;13.07;;;13.80;99.90;;;;;;5053094;28;20678;-78
2022/09/15 07:33:25;;;;;;;26.23;16.03;;;13.90;99.90;;;;;;5056211;28;20196;-78
2022/09/15 07:35:51;;;;;;;36.27;17.10;;;14.00;99.90;;;;;;5054861;28;20186;-77
2022/09/15 07:38:16;;;;;;;37.43;18.47;;;14.10;99.90;;;;;;5058153;28;20201;-78
2022/09/15 07:40:42;;;;;;;30.00;17.27;;;14.20;99.90;;;;;;5076603;28;20645;-78
2022/09/15 07:43:07;;;;;;;30.63;18.43;;;14.30;99.90;;;;;;5062690;28;20191;-78
2022/09/15 07:45:34;;;;;;;40.87;17.93;;;14.40;99.90;;;;;;5065281;28;20175;-78
2022/09/15 07:48:00;;;;;;;30.13;18.93;;;14.40;99.90;;;;;;5065685;28;20250;-78
2022/09/15 07:50:26;;;;;;;35.93;19.27;;;14.50;99.90;;;;;;5060550;28;20200;-78
2022/09/15 07:52:55;;;;;;;28.90;17.57;;;14.60;99.90;;;;;;5062705;28;20254;-80
2022/09/15 07:55:20;;;;;;;27.00;16.37;;;14.60;99.90;;;;;;5068676;28;20207;-80
2022/09/15 07:57:46;;;;;;;29.73;17.80;;;14.70;99.90;;;;;;5068850;28;20183;-80
2022/09/15 08:00:13;;;;;;;28.40;16.80;;;14.80;99.90;;;;;;5080917;28;20666;-80
2022/09/15 08:02:39;;;;;;;29.00;16.87;;;14.90;99.90;;;;;;5070739;28;20183;-78
2022/09/15 08:05:05;;;;;;;25.80;16.07;;;14.90;99.90;;;;;;5067523;28;20179;-81
2022/09/15 08:07:31;;;;;;;25.03;14.97;;;14.90;99.90;;;;;;5066319;28;20182;-80
2022/09/15 08:09:56;;;;;;;24.00;14.97;;;14.90;99.90;;;;;;5066738;28;20179;-80
2022/09/15 08:12:22;;;;;;;22.13;14.17;;;14.90;99.90;;;;;;5047724;28;20192;-80
2022/09/15 08:14:47;;;;;;;22.93;13.40;;;15.00;99.90;;;;;;5046025;28;20228;-80
2022/09/15 08:17:13;;;;;;;21.53;13.00;;;15.10;99.90;;;;;;5044540;28;20254;-79
2022/09/15 08:19:38;;;;;;;21.43;13.37;;;15.10;99.90;;;;;;5043433;28;20582;-80
2022/09/15 08:22:04;;;;;;;21.97;12.97;;;15.10;99.90;;;;;;5045403;28;20199;-79
2022/09/15 08:24:30;;;;;;;16.40;11.27;;;15.20;99.90;;;;;;5045680;28;20242;-79
2022/09/15 08:26:55;;;;;;;17.37;11.00;;;15.30;99.90;;;;;;5044873;28;20196;-80
2022/09/15 08:29:21;;;;;;;20.50;12.07;;;15.30;99.90;;;;;;5062379;28;20188;-80
2022/09/15 08:31:47;;;;;;;20.67;10.67;;;15.40;99.90;;;;;;5092994;22;20240;-91
2022/09/15 08:34:14;;;;;;;19.30;10.50;;;15.40;99.90;;;;;;5095511;28;20179;-94
2022/09/15 08:36:40;;;;;;;13.47;9.43;;;15.60;99.90;;;;;;5096036;28;20171;-94
2022/09/15 08:39:06;;;;;;;22.83;10.83;;;15.50;99.90;;;;;;5094290;28;20222;-94
2022/09/15 08:41:47;;;;;;;13.73;8.80;;;15.50;99.90;;;;;;5092606;28;20209;-93
2022/09/15 08:44:40;;;;;;;16.07;8.00;;;15.60;99.90;;;;;;5095942;28;20165;-94
2022/09/15 08:47:32;;;;;;;13.70;7.40;;;15.60;99.90;;;;;;5096740;28;20174;-94
2022/09/15 08:50:21;;;;;;;12.10;6.90;;;15.70;99.90;;;;;;5096846;28;20163;-96
2022/09/15 08:52:56;;;;;;;12.10;6.30;;;15.80;99.90;;;;;;5093948;22;20218;-80
2022/09/15 08:55:44;;;;;;;12.23;5.60;;;15.90;99.90;;;;;;5065305;28;20645;-80
2022/09/15 08:58:24;;;;;;;9.90;4.53;;;16.00;99.90;;;;;;5065895;28;20232;-80
2022/09/15 09:01:01;;;;;;;5.77;3.60;;;16.00;99.90;;;;;;5054199;28;20191;-80
2022/09/15 09:03:46;;;;;;;6.60;3.30;;;16.10;99.90;;;;;;5047498;28;20262;-80
2022/09/15 09:06:27;;;;;;;7.73;3.53;;;16.10;99.90;;;;;;5068196;22;20222;-79
2022/09/15 09:09:11;;;;;;;8.23;3.13;;;16.20;99.90;;;;;;5083640;28;20590;-79
2022/09/15 09:12:01;;;;;;;9.80;2.90;;;16.20;99.90;;;;;;5085542;28;20667;-79
2022/09/15 09:14:46;;;;;;;11.43;1.83;;;16.30;99.90;;;;;;5080421;28;20254;-79
2022/09/15 09:17:33;;;;;;;6.93;2.13;;;16.30;99.90;;;;;;5069639;28;20190;-80
2022/09/15 09:20:23;;;;;;;9.37;2.13;;;16.40;99.90;;;;;;5064146;28;20190;-79
2022/09/15 09:22:52;;;;;;;5.10;1.67;;;16.40;99.90;;;;;;5060076;28;20172;-80
2022/09/15 09:25:19;;;;;;;5.67;1.83;;;16.40;99.90;;;;;;5057396;28;20171;-81
2022/09/15 09:27:46;;;;;;;7.23;1.77;;;16.50;99.90;;;;;;5090869;28;20268;-79
2022/09/15 09:30:18;;;;;;;4.37;1.50;;;16.50;99.90;;;;;;5058099;28;20542;-79
2022/09/15 09:32:46;;;;;;;7.43;1.33;;;16.60;99.90;;;;;;5062773;28;20179;-79
2022/09/15 09:35:28;;;;;;;5.23;1.73;;;16.70;99.90;;;;;;5066718;28;20179;-79
2022/09/15 09:37:54;;;;;;;4.67;1.63;;;16.70;99.90;;;;;;5061506;28;20214;-79
2022/09/15 09:40:21;;;;;;;3.03;1.80;;;16.80;99.90;;;;;;5060405;28;20219;-79
2022/09/15 09:42:47;;;;;;;4.80;2.43;;;16.80;99.90;;;;;;5061940;28;20183;-79
2022/09/15 09:45:15;;;;;;;6.40;2.10;;;16.80;99.90;;;;;;5061072;28;20186;-79
2022/09/15 09:47:41;;;;;;;7.37;1.60;;;16.90;99.90;;;;;;5064662;28;20690;-78
2022/09/15 09:50:35;;;;;;;5.23;1.50;;;16.90;99.90;;;;;;5061383;28;20176;-79
2022/09/15 09:53:16;;;;;;;5.73;1.40;;;17.00;99.90;;;;;;5061624;28;20684;-80
2022/09/15 09:55:41;;;;;;;6.93;2.17;;;17.10;99.90;;;;;;5066659;28;20570;-79
2022/09/15 09:58:16;;;;;;;6.60;1.40;;;17.10;99.90;;;;;;5063252;28;20182;-79
2022/09/15 10:00:42;;;;;;;3.73;1.00;;;17.20;99.90;;;;;;5076132;28;20167;-79
2022/09/15 10:03:14;;;;;;;4.07;1.00;;;17.20;99.90;;;;;;5067179;28;20771;-79
2022/09/15 10:05:44;;;;;;;4.93;1.50;;;17.30;99.90;;;;;;5066939;28;20252;-79
2022/09/15 10:08:18;;;;;;;8.63;1.20;;;17.20;99.90;;;;;;5068129;28;20668;-79
2022/09/15 10:10:55;;;;;;;4.17;1.40;;;17.20;99.90;;;;;;5060380;28;20527;-79
2022/09/15 10:13:21;;;;;;;6.83;1.87;;;17.30;99.90;;;;;;5059805;28;20175;-79
2022/09/15 10:15:59;;;;;;;4.47;1.03;;;17.30;99.90;;;;;;5063120;28;20700;-79
2022/09/15 10:18:31;;;;;;;4.90;1.20;;;17.30;99.90;;;;;;5064117;28;20274;-79
2022/09/15 10:20:58;;;;;;;3.93;1.10;;;17.30;99.90;;;;;;5064382;28;20166;-79
2022/09/15 10:23:31;;;;;;;3.23;0.80;;;17.30;99.90;;;;;;5061808;28;20174;-79
2022/09/15 10:26:18;;;;;;;4.23;1.00;;;17.40;99.90;;;;;;5065206;28;20170;-79
2022/09/15 10:29:09;;;;;;;5.20;1.50;;;17.40;99.90;;;;;;5053824;28;20168;-78
2022/09/15 10:31:34;;;;;;;6.97;1.33;;;17.40;1.00;;;;;;5055287;28;20234;-78
2022/09/15 10:34:23;;;;;;;2.70;1.00;;;17.40;1.00;;;;;;5054891;28;20183;-77
2022/09/15 10:36:48;;;;;;;4.37;1.13;;;17.40;1.00;;;;;;5053994;28;20203;-77
2022/09/15 10:39:35;;;;;;;6.97;1.70;;;17.50;8.10;;;;;;5065296;28;20203;-78
2022/09/15 10:42:36;;;;;;;6.30;1.20;;;17.50;54.40;;;;;;5058827;28;20218;-78
2022/09/15 10:45:43;;;;;;;4.60;1.30;;;17.60;57.90;;;;;;5060944;28;20198;-78
2022/09/15 10:48:32;;;;;;;1.57;1.00;;;17.60;99.90;;;;;;5065865;28;20170;-78
2022/09/15 10:51:19;;;;;;;5.57;1.30;;;17.60;99.90;;;;;;5072338;28;20175;-77
2022/09/15 10:54:08;;;;;;;3.47;1.00;;;17.50;99.90;;;;;;5068292;28;20213;-77
2022/09/15 10:56:44;;;;;;;2.63;0.90;;;17.50;99.90;;;;;;5061629;28;20200;-77
2022/09/15 10:59:27;;;;;;;4.07;1.30;;;17.50;99.90;;;;;;5063273;28;20269;-77
2022/09/15 11:02:08;;;;;;;6.10;1.60;;;17.50;99.90;;;;;;5059993;28;20255;-77
2022/09/15 11:04:47;;;;;;;1.60;1.07;;;17.40;99.90;;;;;;5064209;28;20168;-77
2022/09/15 11:07:46;;;;;;;5.40;1.33;;;17.40;26.30;;;;;;5065891;28;20226;-77
2022/09/15 11:10:21;;;;;;;4.20;1.37;;;17.30;99.90;;;;;;5061977;28;20168;-78
2022/09/15 11:13:05;;;;;;;5.83;1.37;;;17.10;1.00;;;;;;5061168;28;20560;-78
2022/09/15 11:15:55;;;;;;;2.27;1.17;;;17.20;1.00;;;;;;5064604;28;20242;-77
2022/09/15 11:19:10;;;;;;;4.10;1.10;;;17.10;1.00;;;;;;5064825;28;20702;-77
2022/09/15 11:21:45;;;;;;;3.60;1.23;;;17.10;1.00;;;;;;4995366;28;20234;-80
2022/09/15 11:24:26;;;;;;;3.87;1.20;;;17.10;99.90;;;;;;5064636;28;20544;-78
2022/09/15 11:27:13;;;;;;;3.33;1.33;;;17.00;99.90;;;;;;5060216;28;20194;-78
2022/09/15 11:29:51;;;;;;;3.40;1.13;;;17.00;99.90;;;;;;5060773;28;20175;-78
2022/09/15 11:32:23;;;;;;;4.33;1.20;;;16.90;1.00;;;;;;5063511;28;20175;-78
2022/09/15 11:34:57;;;;;;;5.87;1.47;;;16.90;68.40;;;;;;5058580;28;20543;-78
2022/09/15 11:37:36;;;;;;;5.07;1.57;;;16.80;1.00;;;;;;5064520;28;20195;-78
2022/09/15 11:40:23;;;;;;;5.70;1.47;;;16.80;99.90;;;;;;5060191;28;20244;-78
2022/09/15 11:43:18;;;;;;;4.23;1.13;;;16.60;99.90;;;;;;5069306;28;20599;-78
2022/09/15 11:45:56;;;;;;;3.87;1.37;;;16.60;12.00;;;;;;5028372;28;20184;-78
2022/09/15 11:48:29;;;;;;;4.33;1.20;;;16.50;99.90;;;;;;5069442;28;20171;-78
2022/09/15 11:50:59;;;;;;;6.97;1.30;;;16.60;99.90;;;;;;5067189;28;20247;-78
2022/09/15 11:53:47;;;;;;;4.70;1.33;;;16.60;99.90;;;;;;5062327;28;20277;-77
2022/09/15 11:56:38;;;;;;;6.37;1.67;;;16.60;99.90;;;;;;5067827;28;20230;-78
2022/09/15 11:59:31;;;;;;;2.70;1.37;;;16.70;99.90;;;;;;5057053;28;20282;-78
2022/09/15 12:02:16;;;;;;;6.23;1.67;;;16.70;99.90;;;;;;5066789;28;20632;-78
2022/09/15 12:05:03;;;;;;;7.20;2.03;;;16.70;99.90;;;;;;5062234;28;20183;-78
2022/09/15 12:07:36;;;;;;;4.80;1.60;;;16.70;99.90;;;;;;5064302;28;20692;-78
2022/09/15 12:10:17;;;;;;;6.53;1.53;;;16.70;99.90;;;;;;5061657;28;20189;-79
2022/09/15 12:12:45;;;;;;;5.77;1.40;;;16.60;99.90;;;;;;5066458;28;20187;-78
2022/09/15 12:15:17;;;;;;;4.13;1.27;;;16.70;99.90;;;;;;5074272;28;20178;-78
2022/09/15 12:18:08;;;;;;;2.50;1.50;;;16.70;99.90;;;;;;5063934;28;20656;-79
2022/09/15 12:20:40;;;;;;;4.80;1.50;;;16.70;99.90;;;;;;5060485;28;20180;-78
2022/09/15 12:23:10;;;;;;;5.27;2.13;;;16.60;99.90;;;;;;5059890;28;20304;-78
2022/09/15 12:25:45;;;;;;;3.47;1.67;;;16.60;99.90;;;;;;5063766;28;20675;-78
2022/09/15 12:28:25;;;;;;;12.00;3.17;;;16.60;99.90;;;;;;5056477;28;20305;-77
2022/09/15 12:31:11;;;;;;;4.43;1.93;;;16.60;99.90;;;;;;5053619;28;20182;-77
2022/09/15 12:33:45;;;;;;;6.73;2.47;;;16.60;99.90;;;;;;5051633;28;20562;-78
2022/09/15 12:36:41;;;;;;;3.37;1.60;;;16.60;99.90;;;;;;5052859;28;20183;-77
2022/09/15 12:39:21;;;;;;;3.30;1.90;;;16.60;99.90;;;;;;5046534;28;20215;-77
2022/09/15 12:41:49;;;;;;;6.50;2.40;;;16.60;99.90;;;;;;5051964;28;20209;-77
2022/09/15 12:44:32;;;;;;;5.40;2.10;;;16.60;99.90;;;;;;5053207;28;20167;-80
2022/09/15 12:47:00;;;;;;;8.47;1.67;;;16.60;99.90;;;;;;5052801;28;20692;-77
2022/09/15 12:49:33;;;;;;;9.00;1.40;;;16.60;99.90;;;;;;5052772;28;20203;-77
2022/09/15 12:52:02;;;;;;;4.27;1.33;;;16.50;99.90;;;;;;5051538;28;20599;-77
2022/09/15 12:54:33;;;;;;;4.60;1.30;;;16.60;99.90;;;;;;5051916;28;20190;-77
2022/09/15 12:56:59;;;;;;;8.60;1.40;;;16.60;99.90;;;;;;5052722;28;20195;-78
2022/09/15 12:59:27;;;;;;;3.53;1.10;;;16.60;99.90;;;;;;5052727;28;20566;-78
2022/09/15 13:01:54;;;;;;;2.23;1.00;;;16.60;99.90;;;;;;5052532;28;20553;-77
2022/09/15 13:04:23;;;;;;;4.00;1.30;;;16.60;99.90;;;;;;5051430;28;20229;-77
2022/09/15 13:07:20;;;;;;;5.03;1.33;;;16.50;99.90;;;;;;5066385;28;20214;-77